Time;durP1;ratioP1;P1;durP2;ratioP2;P2;SDS_P1;SDS_P2;PMS_P1;PMS_P2;Temp;Humidity;BMP_temperature;BMP_pressure;BME280_temperature;BME280_humidity;BME280_pressure;Samples;Min_cycle;Max_cycle;Signal;HPM_P1;HPM_P2
2024/02/25 00:00:21;;;;;;;76.97;42.48;;;;;;;2.25;98.60;100020.28;1827414;78;25738;-66
2024/02/25 00:02:49;;;;;;;80.20;42.30;;;;;;;2.23;98.43;100017.88;1828366;78;25833;-67
2024/02/25 00:05:15;;;;;;;76.85;44.03;;;;;;;2.22;98.51;100011.45;1828768;78;25542;-67
2024/02/25 00:07:42;;;;;;;74.15;43.48;;;;;;;2.20;98.51;100010.37;1828854;78;25579;-67
2024/02/25 00:10:10;;;;;;;76.45;41.60;;;;;;;2.20;98.59;100014.38;1828892;78;25461;-68
2024/02/25 00:12:36;;;;;;;75.50;41.05;;;;;;;2.17;98.59;100012.77;1828917;78;25390;-68
2024/02/25 00:15:05;;;;;;;77.42;42.73;;;;;;;2.18;99.13;100013.02;1809742;78;27336;-68
2024/02/25 00:17:33;;;;;;;79.80;45.17;;;;;;;2.17;99.41;100012.23;1805765;79;25628;-68
2024/02/25 00:19:59;;;;;;;72.27;37.25;;;;;;;2.18;99.28;100019.18;1805821;79;25513;-68
2024/02/25 00:22:29;;;;;;;68.22;38.48;;;;;;;2.18;99.38;100024.52;1805814;79;25616;-69
2024/02/25 00:24:56;;;;;;;;;;;;;;;2.17;99.46;100023.44;1808758;79;25372;-70
2024/02/25 00:27:22;;;;;;;68.70;37.63;;;;;;;2.19;99.68;100028.78;1805988;79;27682;-68
2024/02/25 00:29:49;;;;;;;75.28;40.50;;;;;;;2.15;99.36;100014.36;1805905;79;25538;-68
2024/02/25 00:32:17;;;;;;;78.83;42.70;;;;;;;2.17;99.48;100019.44;1806043;79;25482;-68
2024/02/25 00:34:45;;;;;;;73.42;41.98;;;;;;;2.16;99.52;100021.82;1805958;79;26151;-67
2024/02/25 00:37:11;;;;;;;74.70;42.30;;;;;;;2.12;99.23;100021.54;1806027;79;25397;-67
2024/02/25 00:39:37;;;;;;;70.20;39.60;;;;;;;2.13;99.31;100020.49;1806048;79;27905;-68
2024/02/25 00:42:06;;;;;;;65.25;38.17;;;;;;;2.11;99.29;100022.63;1806080;79;26009;-68
2024/02/25 00:44:35;;;;;;;71.50;40.25;;;;;;;2.12;99.18;100022.08;1806067;79;25440;-68
2024/02/25 00:47:03;;;;;;;68.72;37.80;;;;;;;2.11;99.01;100027.13;1805489;79;25930;-68
2024/02/25 00:49:31;;;;;;;63.48;36.17;;;;;;;2.09;99.00;100023.92;1806225;79;25610;-68
2024/02/25 00:51:59;;;;;;;63.55;36.70;;;;;;;2.07;98.76;100028.72;1806039;79;27888;-68
2024/02/25 00:54:25;;;;;;;63.35;35.03;;;;;;;2.05;98.75;100031.65;1805986;79;25385;-68
2024/02/25 00:56:52;;;;;;;62.75;36.53;;;;;;;2.01;98.48;100036.70;1806089;79;25543;-68
2024/02/25 00:59:18;;;;;;;71.67;39.92;;;;;;;2.01;98.41;100039.37;1805938;79;25442;-69
2024/02/25 01:01:50;;;;;;;67.03;37.58;;;;;;;2.01;98.31;100042.03;1806011;79;25623;-70
2024/02/25 01:04:20;;;;;;;64.75;36.42;;;;;;;1.99;98.25;100036.67;1806107;79;27670;-69
2024/02/25 01:06:48;;;;;;;;;;;;;;;1.93;98.14;100026.52;1808599;79;25598;-68
2024/02/25 01:09:15;;;;;;;68.65;38.35;;;;;;;1.92;98.44;100016.09;1806073;79;25483;-68
2024/02/25 01:11:41;;;;;;;64.60;37.40;;;;;;;1.88;98.48;100018.48;1805956;79;25634;-69
2024/02/25 01:14:07;;;;;;;62.15;36.70;;;;;;;1.89;98.91;100015.27;1813189;78;25610;-69
2024/02/25 01:16:39;;;;;;;64.42;35.88;;;;;;;1.85;98.86;100001.11;1828982;78;28135;-68
2024/02/25 01:19:05;;;;;;;63.87;36.83;;;;;;;1.85;99.06;100007.78;1828879;78;25604;-69
2024/02/25 01:21:32;;;;;;;70.28;38.67;;;;;;;1.86;99.26;100002.73;1828965;78;25583;-68
2024/02/25 01:23:58;;;;;;;67.58;37.33;;;;;;;1.86;98.96;100008.06;1828948;78;25955;-68
2024/02/25 01:26:25;;;;;;;62.80;35.28;;;;;;;1.82;98.80;100004.83;1828948;77;25533;-68
2024/02/25 01:28:51;;;;;;;61.83;35.13;;;;;;;1.82;98.86;100012.32;1828945;78;27746;-69
2024/02/25 01:31:17;;;;;;;65.10;37.40;;;;;;;1.81;99.20;100014.70;1828876;78;25599;-68
2024/02/25 01:33:44;;;;;;;72.22;39.73;;;;;;;1.83;99.21;100023.24;1828975;77;25360;-68
2024/02/25 01:36:10;;;;;;;97.72;53.55;;;;;;;1.82;99.34;100023.50;1828912;78;25453;-68
2024/02/25 01:38:36;;;;;;;90.77;50.80;;;;;;;1.83;99.18;100017.11;1829013;78;25451;-68
2024/02/25 01:41:05;;;;;;;79.75;45.85;;;;;;;1.82;99.06;100016.32;1828985;78;27311;-69
2024/02/25 01:43:36;;;;;;;73.33;41.83;;;;;;;1.81;99.09;100016.03;1829154;77;25678;-69
2024/02/25 01:45:59;;;;;;;77.67;42.57;;;;;;;1.79;98.97;100007.49;1828378;78;25589;-69
2024/02/25 01:48:28;;;;;;;77.87;42.35;;;;;;;1.80;98.92;100012.29;1828994;78;25633;-69
2024/02/25 01:50:56;;;;;;;70.37;39.03;;;;;;;1.77;98.91;100013.63;1828997;78;25529;-69
2024/02/25 01:53:22;;;;;;;74.27;39.08;;;;;;;1.77;98.84;100012.80;1828931;77;27242;-69
2024/02/25 01:55:51;;;;;;;71.42;39.40;;;;;;;1.78;98.90;100018.41;1800977;78;25489;-69
2024/02/25 01:58:19;;;;;;;73.30;39.45;;;;;;;1.77;98.79;100018.95;1829119;78;25556;-69
2024/02/25 02:00:49;;;;;;;72.22;39.92;;;;;;;1.75;98.67;100021.05;1828856;77;25789;-69
2024/02/25 02:03:17;;;;;;;76.20;41.68;;;;;;;1.72;98.60;100018.92;1829158;78;25582;-69
2024/02/25 02:05:46;;;;;;;69.53;39.53;;;;;;;1.69;98.69;100016.77;1828949;78;27269;-69
2024/02/25 02:08:14;;;;;;;68.47;37.50;;;;;;;1.68;98.69;100017.27;1828781;78;25547;-68
2024/02/25 02:10:40;;;;;;;64.22;35.65;;;;;;;1.68;98.89;100019.94;1828925;77;25540;-67
2024/02/25 02:13:07;;;;;;;63.40;36.88;;;;;;;1.68;99.08;100012.48;1828911;78;25890;-67
2024/02/25 02:15:34;;;;;;;62.90;35.60;;;;;;;1.69;98.98;100011.43;1810987;78;25612;-67
2024/02/25 02:18:03;;;;;;;61.35;36.48;;;;;;;1.68;98.84;100003.94;1805952;79;27212;-68
2024/02/25 02:20:30;;;;;;;61.80;35.88;;;;;;;1.68;98.81;100005.81;1805839;79;25375;-67
2024/02/25 02:22:57;;;;;;;61.68;36.93;;;;;;;1.67;98.98;100001.02;1805924;79;25556;-67
2024/02/25 02:25:23;;;;;;;66.77;37.63;;;;;;;1.67;99.18;99999.69;1805884;79;25641;-67
2024/02/25 02:27:49;;;;;;;70.75;37.80;;;;;;;1.68;99.35;99995.14;1805933;79;25435;-68
2024/02/25 02:30:15;;;;;;;66.20;38.58;;;;;;;1.68;99.43;99993.81;1805905;79;27390;-68
2024/02/25 02:32:42;;;;;;;71.82;40.12;;;;;;;1.70;99.53;99995.69;1805827;79;25582;-68
2024/02/25 02:35:10;;;;;;;72.90;41.08;;;;;;;1.71;99.64;99985.84;1805928;79;25616;-68
2024/02/25 02:37:36;;;;;;;77.10;42.23;;;;;;;1.71;99.47;99986.64;1805894;79;26174;-67
2024/02/25 02:40:05;;;;;;;74.32;42.65;;;;;;;1.71;99.42;99986.64;1805947;79;25439;-67
2024/02/25 02:42:34;;;;;;;76.37;43.83;;;;;;;1.69;99.27;99987.43;1806063;79;27388;-68
2024/02/25 02:45:03;;;;;;;80.30;44.53;;;;;;;1.68;99.37;99991.94;1805958;79;25373;-67
2024/02/25 02:47:30;;;;;;;56.63;32.42;;;;;;;1.68;99.36;99987.94;1805976;79;25396;-68
2024/02/25 02:49:56;;;;;;;67.00;35.28;;;;;;;1.66;99.29;99977.27;1805882;79;25566;-68
2024/02/25 02:52:22;;;;;;;73.40;39.48;;;;;;;1.67;99.28;99976.23;1805927;79;25426;-68
2024/02/25 02:54:50;;;;;;;70.35;37.65;;;;;;;1.68;99.00;99972.48;1805990;79;27839;-68
2024/02/25 02:57:17;;;;;;;66.17;34.78;;;;;;;1.66;98.88;99968.73;1805869;79;25355;-68
2024/02/25 02:59:43;;;;;;;68.00;36.68;;;;;;;1.65;98.77;99964.48;1805995;79;25435;-68
2024/02/25 03:02:09;;;;;;;64.22;37.10;;;;;;;1.61;98.57;99960.70;1805976;79;25391;-68
2024/02/25 03:04:39;;;;;;;64.32;36.25;;;;;;;1.61;98.39;99965.24;1806000;79;25572;-68
2024/02/25 03:07:07;;;;;;;67.20;37.15;;;;;;;1.59;98.31;99964.16;1805897;79;27387;-68
2024/02/25 03:09:33;;;;;;;66.37;38.55;;;;;;;1.57;98.32;99962.83;1805781;79;25968;-67
2024/02/25 03:11:59;;;;;;;64.30;33.13;;;;;;;1.54;98.40;99950.01;1805940;79;25554;-68
2024/02/25 03:14:28;;;;;;;66.10;34.65;;;;;;;1.51;98.58;99950.52;1810034;78;25894;-67
2024/02/25 03:16:54;;;;;;;59.27;31.25;;;;;;;1.48;98.69;99955.31;1828972;78;25566;-66
2024/02/25 03:19:20;;;;;;;61.33;33.73;;;;;;;1.48;98.75;99965.14;1828894;78;27809;-67
2024/02/25 03:21:47;;;;;;;65.83;33.40;;;;;;;1.48;98.80;99967.30;1828814;77;25436;-67
2024/02/25 03:24:13;;;;;;;64.37;35.20;;;;;;;1.48;98.95;99965.97;1828886;78;25587;-67
2024/02/25 03:26:41;;;;;;;62.58;34.78;;;;;;;1.50;98.97;99975.05;1828792;77;25482;-67
2024/02/25 03:29:09;;;;;;;65.05;35.68;;;;;;;1.49;99.03;99972.09;1828891;78;25536;-67
2024/02/25 03:31:37;;;;;;;59.25;32.08;;;;;;;1.46;98.99;99973.42;1828871;78;27250;-68
2024/02/25 03:34:06;;;;;;;60.80;30.25;;;;;;;1.45;99.05;99977.67;1828798;78;25556;-67
2024/02/25 03:36:32;;;;;;;56.73;30.43;;;;;;;1.42;99.07;99965.65;1829107;78;25530;-68
2024/02/25 03:38:58;;;;;;;58.13;32.23;;;;;;;1.44;99.15;99964.06;1828846;78;25403;-69
2024/02/25 03:41:25;;;;;;;60.78;29.63;;;;;;;1.42;98.88;99964.86;1828907;78;25620;-68
2024/02/25 03:43:53;;;;;;;59.00;30.97;;;;;;;1.41;98.90;99973.90;1828790;78;28687;-67
2024/02/25 03:46:21;;;;;;;63.65;33.83;;;;;;;1.40;99.04;99974.44;1828854;78;25540;-67
2024/02/25 03:48:47;;;;;;;59.03;30.62;;;;;;;1.39;99.08;99972.02;1828915;77;25608;-68
2024/02/25 03:51:13;;;;;;;59.65;32.63;;;;;;;1.37;99.15;99980.81;1828915;78;25437;-67
2024/02/25 03:53:39;;;;;;;61.35;32.55;;;;;;;1.37;99.28;99984.81;1828984;78;25547;-69
2024/02/25 03:56:08;;;;;;;65.10;34.23;;;;;;;1.36;99.26;99983.98;1828935;78;27895;-68
2024/02/25 03:58:37;;;;;;;69.90;36.75;;;;;;;1.36;99.37;99991.19;1828833;78;25529;-68
2024/02/25 04:01:06;;;;;;;64.82;34.18;;;;;;;1.37;99.70;99992.80;1829062;78;25402;-68
2024/02/25 04:03:32;;;;;;;80.03;37.08;;;;;;;1.37;99.92;99991.47;1828318;77;25675;-68
2024/02/25 04:06:03;;;;;;;76.30;38.65;;;;;;;1.39;100.00;99989.34;1828981;78;25361;-68
2024/02/25 04:08:29;;;;;;;70.87;37.50;;;;;;;1.40;100.00;99990.43;1829007;78;27759;-67
2024/02/25 04:10:55;;;;;;;69.58;36.95;;;;;;;1.42;100.00;99989.64;1828901;78;25592;-68
2024/02/25 04:13:23;;;;;;;71.40;38.67;;;;;;;1.42;99.97;99980.31;1829096;78;25388;-68
2024/02/25 04:15:49;;;;;;;70.17;36.65;;;;;;;1.40;99.71;99979.77;1828944;78;25576;-68
2024/02/25 04:18:18;;;;;;;70.30;32.30;;;;;;;1.36;99.57;99979.98;1829167;78;25469;-67
2024/02/25 04:20:44;;;;;;;65.75;35.60;;;;;;;1.34;99.34;99974.11;1829022;78;27684;-67
2024/02/25 04:23:11;;;;;;;68.25;33.67;;;;;;;1.30;99.18;99975.16;1828936;78;25605;-67
2024/02/25 04:25:41;;;;;;;61.60;29.25;;;;;;;1.28;99.19;99979.15;1829008;78;25606;-67
2024/02/25 04:28:09;;;;;;;60.52;29.42;;;;;;;1.24;99.14;99972.20;1829105;78;25555;-67
2024/02/25 04:30:35;;;;;;;54.50;28.10;;;;;;;1.22;99.05;99968.16;1829039;78;25433;-68
2024/02/25 04:33:01;;;;;;;59.98;32.83;;;;;;;1.20;99.26;99962.30;1828882;78;27239;-68
2024/02/25 04:35:28;;;;;;;55.55;29.57;;;;;;;1.23;99.58;99973.78;1829000;78;25769;-68
2024/02/25 04:37:54;;;;;;;56.13;29.07;;;;;;;1.24;99.95;99978.03;1828991;78;25560;-67
2024/02/25 04:40:20;;;;;;;56.70;25.80;;;;;;;1.25;100.00;99976.98;1829056;77;25643;-67
2024/02/25 04:42:46;;;;;;;48.28;25.75;;;;;;;1.28;100.00;99979.15;1829150;78;25611;-67
2024/02/25 04:45:14;;;;;;;51.77;26.45;;;;;;;1.32;100.00;99980.23;1829090;78;27331;-68
2024/02/25 04:47:41;;;;;;;53.13;27.48;;;;;;;1.37;100.00;99984.27;1828878;78;25853;-66
2024/02/25 04:50:10;;;;;;;54.42;28.57;;;;;;;1.43;100.00;99985.10;1828979;78;25556;-67
2024/02/25 04:52:36;;;;;;;52.20;25.97;;;;;;;1.48;100.00;99975.81;1829105;77;25446;-68
2024/02/25 04:55:05;;;;;;;50.15;25.23;;;;;;;1.53;100.00;99975.05;1829027;78;25611;-68
2024/02/25 04:57:31;;;;;;;49.35;24.35;;;;;;;1.56;100.00;99966.55;1829148;78;27297;-68
2024/02/25 04:59:59;;;;;;;49.55;26.70;;;;;;;1.61;100.00;99965.24;1828952;78;25639;-68
2024/02/25 05:02:27;;;;;;;50.00;25.50;;;;;;;1.65;100.00;99966.33;1829044;78;25356;-68
2024/02/25 05:04:53;;;;;;;50.20;26.52;;;;;;;1.68;100.00;99963.15;1828946;78;25965;-68
2024/02/25 05:07:20;;;;;;;53.10;27.13;;;;;;;1.73;100.00;99961.05;1828979;78;25634;-68
2024/02/25 05:09:47;;;;;;;50.70;26.40;;;;;;;1.74;100.00;99956.80;1828928;78;28533;-68
2024/02/25 05:12:16;;;;;;;45.55;24.12;;;;;;;1.77;100.00;99954.95;1828966;78;25382;-68
2024/02/25 05:14:42;;;;;;;47.67;24.80;;;;;;;1.79;100.00;99954.70;1828595;78;25453;-68
2024/02/25 05:17:11;;;;;;;42.27;22.25;;;;;;;1.81;100.00;99960.03;1805933;79;25407;-68
2024/02/25 05:19:37;;;;;;;44.45;23.38;;;;;;;1.82;100.00;99960.31;1806184;79;25428;-68
2024/02/25 05:22:03;;;;;;;37.20;20.62;;;;;;;1.82;100.00;99951.48;1805964;79;27905;-68
2024/02/25 05:24:29;;;;;;;45.12;23.80;;;;;;;1.84;100.00;99950.72;1805871;79;25764;-68
2024/02/25 05:26:57;;;;;;;51.85;26.33;;;;;;;1.84;100.00;99958.19;1805965;79;25564;-68
2024/02/25 05:29:23;;;;;;;50.50;26.20;;;;;;;1.82;100.00;99954.98;1805887;79;25430;-69
2024/02/25 05:31:49;;;;;;;49.30;25.52;;;;;;;1.79;100.00;99954.16;1805996;79;25459;-68
2024/02/25 05:34:16;;;;;;;41.83;22.60;;;;;;;1.76;100.00;99953.33;1805974;79;27326;-68
2024/02/25 05:36:42;;;;;;;45.28;23.22;;;;;;;1.75;100.00;99954.38;1805872;79;25468;-69
2024/02/25 05:39:08;;;;;;;44.85;24.25;;;;;;;1.72;100.00;99956.77;1805977;79;25546;-68
2024/02/25 05:41:36;;;;;;;50.03;28.27;;;;;;;1.68;100.00;99964.48;1805926;79;25972;-68
2024/02/25 05:44:05;;;;;;;54.50;31.10;;;;;;;1.67;100.00;99964.23;1806023;79;25455;-68
2024/02/25 05:46:31;;;;;;;55.92;31.52;;;;;;;1.61;100.00;99962.58;1806055;79;27680;-68
2024/02/25 05:48:58;;;;;;;49.33;27.65;;;;;;;1.60;99.92;99964.45;1805781;79;25538;-68
2024/02/25 05:51:26;;;;;;;52.62;28.30;;;;;;;1.56;99.82;99967.34;1805908;79;25633;-68
2024/02/25 05:53:52;;;;;;;56.28;31.37;;;;;;;1.53;99.75;99958.52;1805894;79;26284;-67
2024/02/25 05:56:18;;;;;;;56.23;29.30;;;;;;;1.51;99.56;99958.52;1805949;79;25557;-67
2024/02/25 05:58:44;;;;;;;53.45;28.85;;;;;;;1.45;99.58;99959.81;1805999;79;27971;-67
2024/02/25 06:01:12;;;;;;;54.33;29.92;;;;;;;1.43;99.73;99955.78;1805949;79;25597;-68
2024/02/25 06:03:38;;;;;;;51.55;29.45;;;;;;;1.41;99.83;99963.23;1806041;79;25420;-68
2024/02/25 06:06:05;;;;;;;46.00;28.85;;;;;;;1.40;100.00;99970.98;1805979;79;25638;-68
2024/02/25 06:08:31;;;;;;;57.55;31.55;;;;;;;1.40;100.00;99976.31;1805921;79;25451;-69
2024/02/25 06:10:57;;;;;;;53.55;28.30;;;;;;;1.40;100.00;99975.77;1805933;79;27900;-68
2024/02/25 06:13:23;;;;;;;54.88;26.90;;;;;;;1.38;100.00;99975.23;1805850;79;25624;-68
2024/02/25 06:15:50;;;;;;;51.28;26.57;;;;;;;1.40;100.00;99971.77;1813528;78;25466;-68
2024/02/25 06:18:16;;;;;;;63.48;38.00;;;;;;;1.39;100.00;99970.16;1828902;78;25613;-68
2024/02/25 06:20:45;;;;;;;58.45;30.35;;;;;;;1.40;100.00;99970.44;1829025;78;25612;-69
2024/02/25 06:23:12;;;;;;;51.73;27.15;;;;;;;1.43;100.00;99964.60;1828855;78;27343;-69
2024/02/25 06:25:38;;;;;;;53.25;26.55;;;;;;;1.46;100.00;99958.77;1828801;78;25521;-67
2024/02/25 06:28:07;;;;;;;50.52;24.90;;;;;;;1.48;100.00;99957.15;1828882;78;25365;-69
2024/02/25 06:30:34;;;;;;;46.85;22.20;;;;;;;1.49;100.00;99952.90;1829056;78;25992;-69
2024/02/25 06:33:05;;;;;;;38.30;20.97;;;;;;;1.53;100.00;99955.05;1829091;78;25608;-69
2024/02/25 06:35:33;;;;;;;39.10;21.05;;;;;;;1.55;100.00;99959.59;1829034;78;28166;-69
2024/02/25 06:38:00;;;;;;;101.53;91.85;;;;;;;1.56;100.00;99954.01;1828940;77;25604;-69
2024/02/25 06:40:27;;;;;;;76.10;68.25;;;;;;;1.62;100.00;99956.20;1828979;78;25504;-68
2024/02/25 06:42:54;;;;;;;36.00;19.85;;;;;;;1.62;100.00;99956.20;1828904;78;25647;-69
2024/02/25 06:45:22;;;;;;;47.88;22.42;;;;;;;1.66;100.00;99955.94;1828939;77;25370;-70
2024/02/25 06:47:50;;;;;;;;;;;;;;;1.72;100.00;99965.59;1831589;78;27665;-69
2024/02/25 06:50:17;;;;;;;38.45;19.48;;;;;;;1.85;100.00;99968.31;1828801;78;25402;-68
2024/02/25 06:52:43;;;;;;;40.67;26.60;;;;;;;2.00;100.00;99965.72;1828904;78;25580;-67
2024/02/25 06:55:10;;;;;;;37.98;20.80;;;;;;;2.18;100.00;99956.47;1828813;78;26275;-68
2024/02/25 06:57:38;;;;;;;99.87;90.72;;;;;;;2.41;100.00;99957.87;1828982;78;25579;-68
2024/02/25 07:00:10;;;;;;;40.80;21.85;;;;;;;2.71;100.00;99947.54;1828982;77;27207;-68
2024/02/25 07:02:38;;;;;;;96.47;87.30;;;;;;;3.06;100.00;99937.94;1828935;78;26014;-67
2024/02/25 07:05:08;;;;;;;42.58;22.58;;;;;;;3.42;100.00;99948.61;1828928;78;25579;-67
2024/02/25 07:07:37;;;;;;;54.75;40.83;;;;;;;3.81;100.00;99950.67;1828872;78;25375;-67
2024/02/25 07:10:07;;;;;;;84.52;76.85;;;;;;;4.21;100.00;99952.95;1828942;78;25534;-68
2024/02/25 07:12:34;;;;;;;55.25;41.15;;;;;;;4.65;100.00;99966.92;1828941;78;27303;-68
2024/02/25 07:15:00;;;;;;;44.33;25.57;;;;;;;5.08;100.00;99971.73;1828770;78;25968;-67
2024/02/25 07:17:26;;;;;;;44.42;24.35;;;;;;;5.46;100.00;99967.36;1828795;78;25419;-68
2024/02/25 07:19:53;;;;;;;57.15;39.30;;;;;;;5.78;100.00;99967.33;1828908;77;25648;-69
2024/02/25 07:22:19;;;;;;;49.77;31.15;;;;;;;6.15;100.00;99957.83;1828899;78;25467;-70
2024/02/25 07:24:46;;;;;;;42.38;23.35;;;;;;;6.53;100.00;99957.87;1828845;78;28041;-69
2024/02/25 07:27:12;;;;;;;42.83;22.35;;;;;;;6.91;100.00;99952.47;1828760;78;25606;-70
2024/02/25 07:29:41;;;;;;;99.90;90.85;;;;;;;7.63;100.00;99941.31;1828838;78;25594;-70
2024/02/25 07:32:07;;;;;;;44.10;24.07;;;;;;;7.63;100.00;99941.31;1828869;78;26097;-70
2024/02/25 07:34:34;;;;;;;40.95;23.42;;;;;;;8.10;100.00;99940.42;1828863;78;25759;-69
2024/02/25 07:37:04;;;;;;;43.42;22.77;;;;;;;8.53;100.00;99949.51;1828838;78;27377;-69
2024/02/25 07:39:30;;;;;;;39.08;21.75;;;;;;;8.90;100.00;99948.39;1828679;78;25513;-70
2024/02/25 07:41:56;;;;;;;42.50;25.35;;;;;;;9.35;100.00;99949.73;1828829;78;25600;-69
2024/02/25 07:44:24;;;;;;;33.20;20.97;;;;;;;9.68;100.00;99956.73;1828854;78;25447;-70
2024/02/25 07:46:51;;;;;;;33.73;19.00;;;;;;;10.02;100.00;99945.82;1828977;78;25620;-70
2024/02/25 07:49:17;;;;;;;36.40;20.65;;;;;;;10.45;100.00;99943.25;1828822;78;28344;-70
2024/02/25 07:51:43;;;;;;;33.98;20.50;;;;;;;10.91;100.00;99942.93;1828648;78;25537;-70
2024/02/25 07:54:11;;;;;;;30.12;18.45;;;;;;;11.36;100.00;99941.98;1828824;78;25645;-69
2024/02/25 07:56:40;;;;;;;28.38;17.80;;;;;;;11.89;99.94;99943.16;1829063;78;25388;-70
2024/02/25 07:59:06;;;;;;;;;;;;;;;12.32;97.36;99942.15;1831631;78;25597;-70
2024/02/25 08:01:35;;;;;;;89.00;81.65;;;;;;;12.71;95.29;99934.69;1828858;78;27266;-69
2024/02/25 08:04:05;;;;;;;;;;;;;;;13.11;93.05;99941.52;1831562;78;25517;-69
2024/02/25 08:06:34;;;;;;;28.50;18.45;;;;;;;13.27;89.65;99931.05;1828872;78;25569;-70
2024/02/25 08:09:04;;;;;;;27.17;18.30;;;;;;;13.64;89.38;99938.52;1828838;78;32359;-69
2024/02/25 08:11:30;;;;;;;44.33;39.92;;;;;;;13.95;87.75;99928.45;1828870;78;25646;-69
2024/02/25 08:13:56;;;;;;;94.00;86.15;;;;;;;14.26;85.58;99911.31;1828800;78;27389;-69
2024/02/25 08:16:25;;;;;;;25.13;16.83;;;;;;;14.40;84.06;99909.00;1828866;77;25600;-70
2024/02/25 08:18:52;;;;;;;23.80;17.02;;;;;;;14.46;81.61;99909.58;1828988;78;25422;-68
2024/02/25 08:21:18;;;;;;;24.05;16.85;;;;;;;14.81;83.11;99907.66;1828863;77;25640;-69
2024/02/25 08:23:44;;;;;;;26.52;16.73;;;;;;;15.18;81.46;99902.83;1828920;77;25709;-68
2024/02/25 08:26:13;;;;;;;22.58;15.28;;;;;;;15.41;79.17;99906.31;1828814;78;28223;-68
2024/02/25 08:28:43;;;;;;;21.75;15.90;;;;;;;15.45;76.51;99908.00;1828798;77;25363;-69
2024/02/25 08:31:10;;;;;;;23.57;16.65;;;;;;;15.46;78.32;99900.05;1828820;78;25677;-68
2024/02/25 08:33:36;;;;;;;20.27;15.45;;;;;;;15.79;76.58;99896.77;1828778;78;25664;-68
2024/02/25 08:36:07;;;;;;;20.27;15.98;;;;;;;16.08;77.24;99891.97;1828798;78;25609;-69
2024/02/25 08:38:34;;;;;;;20.88;15.25;;;;;;;16.46;75.59;99896.68;1828833;78;27319;-67
2024/02/25 08:41:05;;;;;;;19.27;14.55;;;;;;;16.52;72.31;99893.11;1828729;77;25615;-68
2024/02/25 08:43:31;;;;;;;19.75;13.95;;;;;;;16.42;70.97;99895.24;1828964;77;25555;-68
2024/02/25 08:45:57;;;;;;;17.90;14.07;;;;;;;16.59;71.87;99892.67;1828868;78;26255;-68
2024/02/25 08:48:23;;;;;;;18.70;14.60;;;;;;;16.95;72.43;99885.19;1828968;78;25551;-68
2024/02/25 08:50:49;;;;;;;20.88;15.05;;;;;;;17.20;70.86;99886.80;1828882;78;27347;-69
2024/02/25 08:53:19;;;;;;;21.55;14.78;;;;;;;17.44;69.49;99883.72;1828805;78;25607;-69
2024/02/25 08:55:45;;;;;;;20.45;14.45;;;;;;;17.38;65.53;99882.43;1828953;77;25656;-69
2024/02/25 08:58:12;;;;;;;20.15;13.90;;;;;;;17.39;67.06;99877.77;1828955;78;25548;-69
2024/02/25 09:00:38;;;;;;;19.17;14.53;;;;;;;17.48;66.39;99872.83;1829049;77;25398;-68
2024/02/25 09:03:07;;;;;;;16.65;14.13;;;;;;;17.80;66.54;99873.34;1828887;78;27306;-70
2024/02/25 09:05:34;;;;;;;15.95;13.28;;;;;;;17.77;65.82;99869.96;1828857;78;25494;-68
2024/02/25 09:08:04;;;;;;;18.12;13.53;;;;;;;18.17;66.62;99871.36;1828870;78;25550;-70
2024/02/25 09:10:33;;;;;;;20.00;14.68;;;;;;;18.66;65.13;99865.48;1829071;78;25585;-68
2024/02/25 09:13:03;;;;;;;18.92;14.00;;;;;;;19.05;65.12;99865.14;1828942;78;25600;-69
2024/02/25 09:15:33;;;;;;;17.60;14.13;;;;;;;19.91;64.75;99860.38;1829245;78;27670;-70
2024/02/25 09:18:03;;;;;;;21.55;14.18;;;;;;;20.92;63.32;99856.68;1809302;78;25667;-68
2024/02/25 09:20:35;;;;;;;20.00;14.33;;;;;;;21.43;58.58;99854.77;1805868;79;25371;-70
2024/02/25 09:23:05;;;;;;;17.07;12.75;;;;;;;21.96;58.92;99845.70;1805952;79;25458;-67
2024/02/25 09:25:35;;;;;;;16.42;13.38;;;;;;;22.54;57.48;99838.03;1805944;79;25624;-67
2024/02/25 09:28:06;;;;;;;18.42;14.68;;;;;;;22.70;57.23;99838.14;1805954;79;28264;-67
2024/02/25 09:30:32;;;;;;;16.80;12.70;;;;;;;22.56;55.66;99842.54;1805837;79;25967;-69
2024/02/25 09:33:02;;;;;;;15.83;11.95;;;;;;;22.52;55.88;99839.00;1805918;79;25550;-67
2024/02/25 09:35:29;;;;;;;17.90;12.73;;;;;;;22.49;54.51;99834.88;1805917;79;25909;-68
2024/02/25 09:37:55;;;;;;;17.02;12.43;;;;;;;22.47;53.43;99827.62;1805939;79;25610;-67
2024/02/25 09:40:22;;;;;;;17.15;12.68;;;;;;;22.46;53.31;99830.98;1805913;79;27194;-67
2024/02/25 09:42:48;;;;;;;15.83;13.13;;;;;;;22.48;53.29;99820.94;1805813;79;25616;-68
2024/02/25 09:45:22;;;;;;;18.37;13.70;;;;;;;22.64;53.51;99813.55;1805855;79;25588;-69
2024/02/25 09:47:52;;;;;;;16.05;12.35;;;;;;;22.92;53.39;99813.38;1805820;79;26181;-66
2024/02/25 09:50:23;;;;;;;15.85;12.95;;;;;;;22.87;52.06;99806.91;1805932;79;25614;-66
2024/02/25 09:52:54;;;;;;;15.80;13.62;;;;;;;22.94;51.27;99803.32;1805894;79;27367;-67
2024/02/25 09:55:21;;;;;;;16.42;13.38;;;;;;;22.97;50.84;99811.36;1805870;79;25480;-68
2024/02/25 09:57:50;;;;;;;16.32;12.53;;;;;;;23.24;51.95;99807.44;1805968;79;25514;-69
2024/02/25 10:00:20;;;;;;;17.12;12.47;;;;;;;23.67;51.56;99802.91;1805475;79;25608;-72
2024/02/25 10:02:46;;;;;;;15.50;12.58;;;;;;;23.80;49.68;99802.58;1805994;79;25586;-71
2024/02/25 10:05:19;;;;;;;18.40;13.50;;;;;;;23.88;49.00;99812.97;1805803;79;27323;-70
2024/02/25 10:07:49;;;;;;;15.63;12.63;;;;;;;24.16;48.77;99800.00;1805934;79;25614;-70
2024/02/25 10:10:17;;;;;;;17.65;13.28;;;;;;;24.42;48.41;99799.28;1801330;79;25404;-70
2024/02/25 10:12:50;;;;;;;15.43;12.75;;;;;;;24.72;47.88;99793.56;1805906;79;26300;-70
2024/02/25 10:15:16;;;;;;;17.75;13.50;;;;;;;24.93;47.64;99791.67;1806031;79;25641;-69
2024/02/25 10:17:47;;;;;;;17.37;13.05;;;;;;;25.06;46.41;99788.47;1805797;78;28023;-69
2024/02/25 10:20:13;;;;;;;15.88;12.05;;;;;;;25.25;47.26;99791.14;1805908;79;25581;-70
2024/02/25 10:22:43;;;;;;;14.75;12.47;;;;;;;25.64;46.70;99795.81;1805950;79;25631;-69
2024/02/25 10:25:12;;;;;;;16.80;13.05;;;;;;;25.55;44.29;99793.61;1805958;79;25732;-68
2024/02/25 10:27:44;;;;;;;17.60;12.75;;;;;;;25.70;43.51;99789.36;1805957;79;25376;-70
2024/02/25 10:30:12;;;;;;;15.83;12.58;;;;;;;26.23;43.34;99785.97;1805900;79;27384;-69
2024/02/25 10:32:39;;;;;;;16.60;11.55;;;;;;;26.82;43.18;99776.74;1805916;79;25618;-71
2024/02/25 10:35:10;;;;;;;15.63;11.80;;;;;;;27.45;42.59;99780.36;1806118;79;25444;-71
2024/02/25 10:37:38;;;;;;;13.35;10.63;;;;;;;27.58;41.43;99777.04;1805893;79;25580;-72
2024/02/25 10:40:10;;;;;;;15.80;10.63;;;;;;;27.51;40.16;99777.20;1806273;79;25574;-69
2024/02/25 10:42:49;;;;;;;16.37;11.20;;;;;;;27.27;40.35;99789.12;1805974;79;29234;-70
2024/02/25 10:45:19;;;;;;;13.65;10.60;;;;;;;27.31;40.59;99771.00;1805837;79;25595;-70
2024/02/25 10:47:49;;;;;;;14.33;11.00;;;;;;;27.20;40.39;99766.48;1805896;79;25617;-72
2024/02/25 10:50:20;;;;;;;14.03;11.40;;;;;;;27.09;39.42;99763.22;1783113;79;25673;-73
2024/02/25 10:52:50;;;;;;;13.53;10.95;;;;;;;26.95;39.86;99761.58;1805943;79;25578;-71
2024/02/25 10:55:21;;;;;;;30.97;26.65;;;;;;;26.75;39.70;99761.66;1806075;79;28034;-66
2024/02/25 10:57:52;;;;;;;23.83;17.55;;;;;;;26.44;39.32;99755.02;1805844;79;25946;-70
2024/02/25 11:00:19;;;;;;;13.22;11.20;;;;;;;26.22;40.42;99756.69;1805964;79;25387;-71
2024/02/25 11:02:49;;;;;;;12.18;10.45;;;;;;;26.13;39.09;99746.19;1805763;79;25498;-78
2024/02/25 11:05:19;;;;;;;11.57;10.00;;;;;;;26.33;40.82;99741.22;1806028;79;25592;-78
2024/02/25 11:07:50;;;;;;;11.45;9.20;;;;;;;26.68;39.92;99744.39;1805992;79;27498;-76
2024/02/25 11:10:22;;;;;;;15.35;10.15;;;;;;;27.03;39.79;99737.20;1805845;79;25436;-73
2024/02/25 11:12:52;;;;;;;13.18;9.98;;;;;;;26.90;37.75;99744.66;1805846;79;25373;-77
2024/02/25 11:15:27;;;;;;;11.95;9.75;;;;;;;26.46;37.13;99742.89;1806082;79;25546;-76
2024/02/25 11:17:51;;;;;;;11.00;8.80;;;;;;;26.28;38.33;99734.96;1816443;78;25533;-77
2024/02/25 11:20:28;;;;;;;16.60;8.45;;;;;;;26.77;39.26;99721.78;1800254;78;27301;-78